sensor_id;sensor_type;location;lat;lon;timestamp;P1;durP1;ratioP1;P2;durP2;ratioP2
5458;SDS011;2752;49.992;8.422;2022-08-21T00:02:27;14.07;;;4.33;;
5458;SDS011;2752;49.992;8.422;2022-08-21T00:04:54;12.93;;;4.17;;
5458;SDS011;2752;49.992;8.422;2022-08-21T00:07:21;7.70;;;4.07;;
5458;SDS011;2752;49.992;8.422;2022-08-21T00:09:47;15.33;;;5.20;;
5458;SDS011;2752;49.992;8.422;2022-08-21T00:12:15;12.83;;;3.93;;
5458;SDS011;2752;49.992;8.422;2022-08-21T00:14:42;11.90;;;4.50;;
5458;SDS011;2752;49.992;8.422;2022-08-21T00:17:09;10.07;;;4.20;;
5458;SDS011;2752;49.992;8.422;2022-08-21T00:19:36;9.63;;;3.27;;
5458;SDS011;2752;49.992;8.422;2022-08-21T00:22:02;11.17;;;3.50;;
5458;SDS011;2752;49.992;8.422;2022-08-21T00:24:29;11.87;;;4.20;;
5458;SDS011;2752;49.992;8.422;2022-08-21T00:26:56;11.03;;;3.67;;
5458;SDS011;2752;49.992;8.422;2022-08-21T00:29:25;12.63;;;4.10;;
5458;SDS011;2752;49.992;8.422;2022-08-21T00:31:51;7.57;;;3.70;;
5458;SDS011;2752;49.992;8.422;2022-08-21T00:34:19;10.90;;;3.73;;
5458;SDS011;2752;49.992;8.422;2022-08-21T00:36:46;9.10;;;3.73;;
5458;SDS011;2752;49.992;8.422;2022-08-21T00:39:12;11.33;;;3.80;;
5458;SDS011;2752;49.992;8.422;2022-08-21T00:41:39;9.37;;;4.20;;
5458;SDS011;2752;49.992;8.422;2022-08-21T00:44:07;12.20;;;4.13;;
5458;SDS011;2752;49.992;8.422;2022-08-21T00:46:38;23.20;;;5.23;;
5458;SDS011;2752;49.992;8.422;2022-08-21T00:49:05;12.00;;;4.43;;
5458;SDS011;2752;49.992;8.422;2022-08-21T00:51:35;11.53;;;3.97;;
5458;SDS011;2752;49.992;8.422;2022-08-21T00:54:06;8.47;;;3.63;;
5458;SDS011;2752;49.992;8.422;2022-08-21T00:56:34;9.60;;;3.90;;
5458;SDS011;2752;49.992;8.422;2022-08-21T00:59:01;13.27;;;4.30;;
5458;SDS011;2752;49.992;8.422;2022-08-21T01:01:29;11.77;;;4.40;;
5458;SDS011;2752;49.992;8.422;2022-08-21T01:03:57;14.93;;;5.30;;
5458;SDS011;2752;49.992;8.422;2022-08-21T01:06:24;19.70;;;4.97;;
5458;SDS011;2752;49.992;8.422;2022-08-21T01:08:50;8.60;;;4.17;;
5458;SDS011;2752;49.992;8.422;2022-08-21T01:11:17;10.63;;;3.60;;
5458;SDS011;2752;49.992;8.422;2022-08-21T01:13:44;13.43;;;4.07;;
5458;SDS011;2752;49.992;8.422;2022-08-21T01:16:12;10.87;;;4.13;;
5458;SDS011;2752;49.992;8.422;2022-08-21T01:18:41;10.27;;;4.33;;
5458;SDS011;2752;49.992;8.422;2022-08-21T01:21:11;8.87;;;4.40;;
5458;SDS011;2752;49.992;8.422;2022-08-21T01:23:40;8.33;;;3.20;;
5458;SDS011;2752;49.992;8.422;2022-08-21T01:26:09;17.07;;;4.17;;
5458;SDS011;2752;49.992;8.422;2022-08-21T01:28:37;10.60;;;3.77;;
5458;SDS011;2752;49.992;8.422;2022-08-21T01:31:07;10.50;;;3.70;;
5458;SDS011;2752;49.992;8.422;2022-08-21T01:33:36;14.13;;;4.30;;
5458;SDS011;2752;49.992;8.422;2022-08-21T01:36:03;9.10;;;3.57;;
5458;SDS011;2752;49.992;8.422;2022-08-21T01:38:32;10.20;;;3.13;;
5458;SDS011;2752;49.992;8.422;2022-08-21T01:40:59;15.53;;;4.40;;
5458;SDS011;2752;49.992;8.422;2022-08-21T01:43:26;15.23;;;4.23;;
5458;SDS011;2752;49.992;8.422;2022-08-21T01:45:52;11.27;;;5.47;;
5458;SDS011;2752;49.992;8.422;2022-08-21T01:48:19;10.33;;;4.10;;
5458;SDS011;2752;49.992;8.422;2022-08-21T01:50:45;9.40;;;3.40;;
5458;SDS011;2752;49.992;8.422;2022-08-21T01:53:13;14.60;;;3.67;;
5458;SDS011;2752;49.992;8.422;2022-08-21T01:55:41;12.00;;;3.10;;
5458;SDS011;2752;49.992;8.422;2022-08-21T01:58:08;16.47;;;4.50;;
5458;SDS011;2752;49.992;8.422;2022-08-21T02:00:35;7.50;;;3.47;;
5458;SDS011;2752;49.992;8.422;2022-08-21T02:03:01;14.30;;;4.93;;
5458;SDS011;2752;49.992;8.422;2022-08-21T02:05:28;7.17;;;3.80;;
5458;SDS011;2752;49.992;8.422;2022-08-21T02:07:55;14.27;;;4.27;;
5458;SDS011;2752;49.992;8.422;2022-08-21T02:10:23;8.07;;;3.60;;
5458;SDS011;2752;49.992;8.422;2022-08-21T02:12:52;16.80;;;4.37;;
5458;SDS011;2752;49.992;8.422;2022-08-21T02:15:20;13.70;;;3.20;;
5458;SDS011;2752;49.992;8.422;2022-08-21T02:17:47;16.60;;;4.00;;
5458;SDS011;2752;49.992;8.422;2022-08-21T02:20:18;12.13;;;4.87;;
5458;SDS011;2752;49.992;8.422;2022-08-21T02:22:46;31.70;;;6.40;;
5458;SDS011;2752;49.992;8.422;2022-08-21T02:25:14;19.63;;;4.83;;
5458;SDS011;2752;49.992;8.422;2022-08-21T02:27:42;14.57;;;4.00;;
5458;SDS011;2752;49.992;8.422;2022-08-21T02:30:14;10.77;;;4.27;;
5458;SDS011;2752;49.992;8.422;2022-08-21T02:32:42;14.57;;;4.63;;
5458;SDS011;2752;49.992;8.422;2022-08-21T02:35:09;9.47;;;4.57;;
5458;SDS011;2752;49.992;8.422;2022-08-21T02:37:42;15.73;;;4.70;;
5458;SDS011;2752;49.992;8.422;2022-08-21T02:40:10;21.73;;;5.20;;
5458;SDS011;2752;49.992;8.422;2022-08-21T02:42:38;20.57;;;4.93;;
5458;SDS011;2752;49.992;8.422;2022-08-21T02:45:06;7.97;;;4.57;;
5458;SDS011;2752;49.992;8.422;2022-08-21T02:47:35;22.23;;;4.77;;
5458;SDS011;2752;49.992;8.422;2022-08-21T02:50:02;12.57;;;4.60;;
5458;SDS011;2752;49.992;8.422;2022-08-21T02:52:29;19.93;;;4.23;;
5458;SDS011;2752;49.992;8.422;2022-08-21T02:54:56;14.47;;;4.10;;
5458;SDS011;2752;49.992;8.422;2022-08-21T02:57:23;14.13;;;5.33;;
5458;SDS011;2752;49.992;8.422;2022-08-21T02:59:50;24.70;;;5.30;;
5458;SDS011;2752;49.992;8.422;2022-08-21T03:02:17;14.00;;;4.10;;
5458;SDS011;2752;49.992;8.422;2022-08-21T03:04:46;14.93;;;3.90;;
5458;SDS011;2752;49.992;8.422;2022-08-21T03:07:13;28.40;;;4.50;;
5458;SDS011;2752;49.992;8.422;2022-08-21T03:09:40;15.70;;;3.97;;
5458;SDS011;2752;49.992;8.422;2022-08-21T03:12:07;13.33;;;4.10;;
5458;SDS011;2752;49.992;8.422;2022-08-21T03:14:34;16.80;;;4.23;;
5458;SDS011;2752;49.992;8.422;2022-08-21T03:17:03;11.43;;;3.70;;
5458;SDS011;2752;49.992;8.422;2022-08-21T03:19:30;11.10;;;4.10;;
5458;SDS011;2752;49.992;8.422;2022-08-21T03:21:58;10.57;;;4.83;;
5458;SDS011;2752;49.992;8.422;2022-08-21T03:24:25;11.13;;;4.70;;
5458;SDS011;2752;49.992;8.422;2022-08-21T03:26:52;6.53;;;3.53;;
5458;SDS011;2752;49.992;8.422;2022-08-21T03:29:19;10.60;;;3.87;;
5458;SDS011;2752;49.992;8.422;2022-08-21T03:31:45;12.77;;;4.03;;
5458;SDS011;2752;49.992;8.422;2022-08-21T03:34:12;16.00;;;4.63;;
5458;SDS011;2752;49.992;8.422;2022-08-21T03:36:39;14.77;;;4.40;;
5458;SDS011;2752;49.992;8.422;2022-08-21T03:39:07;13.83;;;5.70;;
5458;SDS011;2752;49.992;8.422;2022-08-21T03:41:34;14.53;;;4.27;;
5458;SDS011;2752;49.992;8.422;2022-08-21T03:44:01;12.33;;;5.20;;
5458;SDS011;2752;49.992;8.422;2022-08-21T03:46:28;11.40;;;4.10;;
5458;SDS011;2752;49.992;8.422;2022-08-21T03:48:54;11.10;;;3.50;;
5458;SDS011;2752;49.992;8.422;2022-08-21T03:51:21;12.43;;;4.03;;
5458;SDS011;2752;49.992;8.422;2022-08-21T03:53:48;8.97;;;4.00;;
5458;SDS011;2752;49.992;8.422;2022-08-21T03:56:16;15.20;;;4.10;;
5458;SDS011;2752;49.992;8.422;2022-08-21T03:58:42;18.70;;;4.30;;
5458;SDS011;2752;49.992;8.422;2022-08-21T04:01:10;14.00;;;4.30;;
5458;SDS011;2752;49.992;8.422;2022-08-21T04:03:37;11.23;;;4.20;;
5458;SDS011;2752;49.992;8.422;2022-08-21T04:06:04;11.40;;;4.33;;
5458;SDS011;2752;49.992;8.422;2022-08-21T04:08:32;8.80;;;3.67;;
5458;SDS011;2752;49.992;8.422;2022-08-21T04:10:59;14.37;;;4.80;;
5458;SDS011;2752;49.992;8.422;2022-08-21T04:13:27;11.60;;;4.07;;
5458;SDS011;2752;49.992;8.422;2022-08-21T04:15:54;17.73;;;4.20;;
5458;SDS011;2752;49.992;8.422;2022-08-21T04:18:21;18.97;;;4.07;;
5458;SDS011;2752;49.992;8.422;2022-08-21T04:20:48;19.90;;;4.73;;
5458;SDS011;2752;49.992;8.422;2022-08-21T04:23:17;14.10;;;4.10;;
5458;SDS011;2752;49.992;8.422;2022-08-21T04:25:44;17.00;;;4.10;;
5458;SDS011;2752;49.992;8.422;2022-08-21T04:28:10;9.33;;;3.80;;
5458;SDS011;2752;49.992;8.422;2022-08-21T04:30:38;26.03;;;4.97;;
5458;SDS011;2752;49.992;8.422;2022-08-21T04:33:05;11.60;;;4.67;;
5458;SDS011;2752;49.992;8.422;2022-08-21T04:35:32;18.47;;;4.30;;
5458;SDS011;2752;49.992;8.422;2022-08-21T04:37:59;15.70;;;5.30;;
5458;SDS011;2752;49.992;8.422;2022-08-21T04:40:26;9.13;;;4.00;;
5458;SDS011;2752;49.992;8.422;2022-08-21T04:42:55;9.13;;;4.37;;
5458;SDS011;2752;49.992;8.422;2022-08-21T04:45:25;10.67;;;4.50;;
5458;SDS011;2752;49.992;8.422;2022-08-21T04:47:56;8.17;;;3.70;;
5458;SDS011;2752;49.992;8.422;2022-08-21T04:50:25;29.97;;;3.97;;
5458;SDS011;2752;49.992;8.422;2022-08-21T04:52:55;20.00;;;5.13;;
5458;SDS011;2752;49.992;8.422;2022-08-21T04:55:22;11.87;;;4.17;;
5458;SDS011;2752;49.992;8.422;2022-08-21T04:57:50;12.20;;;4.20;;
5458;SDS011;2752;49.992;8.422;2022-08-21T05:00:19;17.97;;;3.90;;
5458;SDS011;2752;49.992;8.422;2022-08-21T05:02:46;9.33;;;3.87;;
5458;SDS011;2752;49.992;8.422;2022-08-21T05:05:15;24.07;;;3.63;;
5458;SDS011;2752;49.992;8.422;2022-08-21T05:07:42;10.40;;;4.13;;
5458;SDS011;2752;49.992;8.422;2022-08-21T05:10:10;11.83;;;3.87;;
5458;SDS011;2752;49.992;8.422;2022-08-21T05:12:38;9.07;;;3.90;;
5458;SDS011;2752;49.992;8.422;2022-08-21T05:15:07;12.80;;;3.90;;
5458;SDS011;2752;49.992;8.422;2022-08-21T05:17:34;12.90;;;3.90;;
5458;SDS011;2752;49.992;8.422;2022-08-21T05:20:01;15.80;;;3.90;;
5458;SDS011;2752;49.992;8.422;2022-08-21T05:22:30;11.23;;;3.47;;
5458;SDS011;2752;49.992;8.422;2022-08-21T05:24:57;16.40;;;4.50;;
5458;SDS011;2752;49.992;8.422;2022-08-21T05:27:23;8.50;;;3.40;;
5458;SDS011;2752;49.992;8.422;2022-08-21T05:29:50;9.53;;;3.50;;
5458;SDS011;2752;49.992;8.422;2022-08-21T05:32:17;15.53;;;3.87;;
5458;SDS011;2752;49.992;8.422;2022-08-21T05:34:43;9.73;;;3.87;;
5458;SDS011;2752;49.992;8.422;2022-08-21T05:37:11;7.07;;;3.90;;
5458;SDS011;2752;49.992;8.422;2022-08-21T05:39:39;7.90;;;3.63;;
5458;SDS011;2752;49.992;8.422;2022-08-21T05:42:06;10.00;;;3.30;;
5458;SDS011;2752;49.992;8.422;2022-08-21T05:44:33;10.27;;;3.40;;
5458;SDS011;2752;49.992;8.422;2022-08-21T05:47:02;17.47;;;4.80;;
5458;SDS011;2752;49.992;8.422;2022-08-21T05:49:30;14.13;;;4.50;;
5458;SDS011;2752;49.992;8.422;2022-08-21T05:51:57;19.47;;;4.50;;
5458;SDS011;2752;49.992;8.422;2022-08-21T05:54:26;13.93;;;4.87;;
5458;SDS011;2752;49.992;8.422;2022-08-21T05:56:54;11.63;;;4.07;;
5458;SDS011;2752;49.992;8.422;2022-08-21T05:59:21;8.90;;;3.90;;
5458;SDS011;2752;49.992;8.422;2022-08-21T06:01:48;13.30;;;4.10;;
5458;SDS011;2752;49.992;8.422;2022-08-21T06:04:17;12.80;;;4.27;;
5458;SDS011;2752;49.992;8.422;2022-08-21T06:06:44;16.00;;;5.00;;
5458;SDS011;2752;49.992;8.422;2022-08-21T06:09:11;11.30;;;3.90;;
5458;SDS011;2752;49.992;8.422;2022-08-21T06:11:38;14.97;;;5.13;;
5458;SDS011;2752;49.992;8.422;2022-08-21T06:14:06;8.70;;;3.53;;
5458;SDS011;2752;49.992;8.422;2022-08-21T06:16:33;13.00;;;4.20;;
5458;SDS011;2752;49.992;8.422;2022-08-21T06:19:00;10.97;;;3.70;;
5458;SDS011;2752;49.992;8.422;2022-08-21T06:21:26;12.80;;;4.03;;
5458;SDS011;2752;49.992;8.422;2022-08-21T06:23:53;10.70;;;3.97;;
5458;SDS011;2752;49.992;8.422;2022-08-21T06:26:20;21.30;;;4.77;;
5458;SDS011;2752;49.992;8.422;2022-08-21T06:28:48;11.93;;;4.20;;
5458;SDS011;2752;49.992;8.422;2022-08-21T06:31:17;9.53;;;3.53;;
5458;SDS011;2752;49.992;8.422;2022-08-21T06:33:45;13.03;;;4.23;;
5458;SDS011;2752;49.992;8.422;2022-08-21T06:36:12;15.33;;;4.03;;
5458;SDS011;2752;49.992;8.422;2022-08-21T06:38:39;8.00;;;3.57;;
5458;SDS011;2752;49.992;8.422;2022-08-21T06:41:07;11.17;;;4.60;;
5458;SDS011;2752;49.992;8.422;2022-08-21T06:43:34;11.13;;;4.90;;
5458;SDS011;2752;49.992;8.422;2022-08-21T06:46:00;14.83;;;4.70;;
5458;SDS011;2752;49.992;8.422;2022-08-21T06:48:29;17.47;;;5.10;;
5458;SDS011;2752;49.992;8.422;2022-08-21T06:50:57;17.57;;;5.03;;
5458;SDS011;2752;49.992;8.422;2022-08-21T06:53:24;15.57;;;4.97;;
5458;SDS011;2752;49.992;8.422;2022-08-21T06:55:51;14.87;;;4.80;;
5458;SDS011;2752;49.992;8.422;2022-08-21T06:58:18;15.43;;;4.67;;
5458;SDS011;2752;49.992;8.422;2022-08-21T07:00:47;10.67;;;5.20;;
5458;SDS011;2752;49.992;8.422;2022-08-21T07:03:18;13.60;;;4.90;;
5458;SDS011;2752;49.992;8.422;2022-08-21T07:05:47;14.70;;;4.73;;
5458;SDS011;2752;49.992;8.422;2022-08-21T07:08:13;18.77;;;4.90;;
5458;SDS011;2752;49.992;8.422;2022-08-21T07:10:41;12.67;;;4.77;;
5458;SDS011;2752;49.992;8.422;2022-08-21T07:13:08;13.57;;;4.40;;
5458;SDS011;2752;49.992;8.422;2022-08-21T07:15:35;12.27;;;4.30;;
5458;SDS011;2752;49.992;8.422;2022-08-21T07:18:02;13.97;;;4.30;;
5458;SDS011;2752;49.992;8.422;2022-08-21T07:20:29;10.07;;;4.67;;
5458;SDS011;2752;49.992;8.422;2022-08-21T07:23:00;8.40;;;4.40;;
5458;SDS011;2752;49.992;8.422;2022-08-21T07:25:29;11.67;;;4.30;;
5458;SDS011;2752;49.992;8.422;2022-08-21T07:27:56;11.77;;;4.87;;
5458;SDS011;2752;49.992;8.422;2022-08-21T07:30:23;16.17;;;4.13;;
5458;SDS011;2752;49.992;8.422;2022-08-21T07:32:50;9.10;;;4.03;;
5458;SDS011;2752;49.992;8.422;2022-08-21T07:35:17;8.97;;;3.63;;
5458;SDS011;2752;49.992;8.422;2022-08-21T07:37:44;14.23;;;4.83;;
5458;SDS011;2752;49.992;8.422;2022-08-21T07:40:13;13.17;;;4.30;;
5458;SDS011;2752;49.992;8.422;2022-08-21T07:42:40;9.03;;;4.20;;
5458;SDS011;2752;49.992;8.422;2022-08-21T07:45:08;11.10;;;4.97;;
5458;SDS011;2752;49.992;8.422;2022-08-21T07:47:36;12.17;;;4.40;;
5458;SDS011;2752;49.992;8.422;2022-08-21T07:50:04;8.77;;;4.80;;
5458;SDS011;2752;49.992;8.422;2022-08-21T07:52:32;12.73;;;4.67;;
5458;SDS011;2752;49.992;8.422;2022-08-21T07:54:59;10.73;;;5.20;;
5458;SDS011;2752;49.992;8.422;2022-08-21T07:57:27;14.40;;;4.03;;
5458;SDS011;2752;49.992;8.422;2022-08-21T07:59:54;11.87;;;5.63;;
5458;SDS011;2752;49.992;8.422;2022-08-21T08:02:21;11.00;;;4.70;;
5458;SDS011;2752;49.992;8.422;2022-08-21T08:04:49;11.93;;;5.23;;
5458;SDS011;2752;49.992;8.422;2022-08-21T08:07:16;12.93;;;5.20;;
5458;SDS011;2752;49.992;8.422;2022-08-21T08:09:43;14.37;;;5.90;;
5458;SDS011;2752;49.992;8.422;2022-08-21T08:12:10;11.93;;;5.07;;
5458;SDS011;2752;49.992;8.422;2022-08-21T08:14:38;14.80;;;6.23;;
5458;SDS011;2752;49.992;8.422;2022-08-21T08:17:05;16.40;;;5.70;;
5458;SDS011;2752;49.992;8.422;2022-08-21T08:19:32;16.53;;;6.20;;
5458;SDS011;2752;49.992;8.422;2022-08-21T08:21:59;14.87;;;5.80;;
5458;SDS011;2752;49.992;8.422;2022-08-21T08:24:25;12.13;;;4.67;;
5458;SDS011;2752;49.992;8.422;2022-08-21T08:26:52;8.73;;;4.80;;
5458;SDS011;2752;49.992;8.422;2022-08-21T08:29:22;13.03;;;6.10;;
5458;SDS011;2752;49.992;8.422;2022-08-21T08:31:49;13.23;;;5.60;;
5458;SDS011;2752;49.992;8.422;2022-08-21T08:34:20;12.07;;;6.50;;
5458;SDS011;2752;49.992;8.422;2022-08-21T08:36:53;9.20;;;5.57;;
5458;SDS011;2752;49.992;8.422;2022-08-21T08:39:22;13.03;;;6.60;;
5458;SDS011;2752;49.992;8.422;2022-08-21T08:41:51;13.23;;;7.03;;
5458;SDS011;2752;49.992;8.422;2022-08-21T08:44:22;11.80;;;6.77;;
5458;SDS011;2752;49.992;8.422;2022-08-21T08:46:53;14.63;;;6.70;;
5458;SDS011;2752;49.992;8.422;2022-08-21T08:49:23;15.97;;;6.87;;
5458;SDS011;2752;49.992;8.422;2022-08-21T08:51:57;11.70;;;6.20;;
5458;SDS011;2752;49.992;8.422;2022-08-21T08:54:30;14.77;;;6.33;;
5458;SDS011;2752;49.992;8.422;2022-08-21T08:57:02;11.90;;;6.43;;
5458;SDS011;2752;49.992;8.422;2022-08-21T08:59:36;11.13;;;6.07;;
5458;SDS011;2752;49.992;8.422;2022-08-21T09:02:09;16.33;;;6.57;;
5458;SDS011;2752;49.992;8.422;2022-08-21T09:04:40;11.40;;;6.10;;
5458;SDS011;2752;49.992;8.422;2022-08-21T09:07:10;16.53;;;5.40;;
5458;SDS011;2752;49.992;8.422;2022-08-21T09:09:47;12.53;;;5.10;;
5458;SDS011;2752;49.992;8.422;2022-08-21T09:12:25;12.67;;;5.57;;
5458;SDS011;2752;49.992;8.422;2022-08-21T09:14:58;11.13;;;5.10;;
5458;SDS011;2752;49.992;8.422;2022-08-21T09:17:36;16.00;;;5.83;;
5458;SDS011;2752;49.992;8.422;2022-08-21T09:20:12;11.73;;;5.67;;
5458;SDS011;2752;49.992;8.422;2022-08-21T09:22:43;16.93;;;4.97;;
5458;SDS011;2752;49.992;8.422;2022-08-21T09:25:15;13.13;;;5.30;;
5458;SDS011;2752;49.992;8.422;2022-08-21T09:27:47;14.93;;;4.70;;
5458;SDS011;2752;49.992;8.422;2022-08-21T09:30:17;13.77;;;4.70;;
5458;SDS011;2752;49.992;8.422;2022-08-21T09:32:57;14.30;;;4.40;;
5458;SDS011;2752;49.992;8.422;2022-08-21T09:35:27;12.50;;;4.00;;
5458;SDS011;2752;49.992;8.422;2022-08-21T09:37:58;13.70;;;5.00;;
5458;SDS011;2752;49.992;8.422;2022-08-21T09:40:32;13.03;;;4.30;;
5458;SDS011;2752;49.992;8.422;2022-08-21T09:43:03;15.70;;;4.00;;
5458;SDS011;2752;49.992;8.422;2022-08-21T09:45:33;11.97;;;3.77;;
5458;SDS011;2752;49.992;8.422;2022-08-21T09:48:14;6.60;;;2.90;;
5458;SDS011;2752;49.992;8.422;2022-08-21T09:50:45;20.53;;;4.20;;
5458;SDS011;2752;49.992;8.422;2022-08-21T09:53:16;18.43;;;4.93;;
5458;SDS011;2752;49.992;8.422;2022-08-21T09:55:48;9.57;;;3.30;;
5458;SDS011;2752;49.992;8.422;2022-08-21T09:58:36;8.80;;;3.83;;
5458;SDS011;2752;49.992;8.422;2022-08-21T10:01:04;14.73;;;4.17;;
5458;SDS011;2752;49.992;8.422;2022-08-21T10:03:33;6.30;;;3.10;;
5458;SDS011;2752;49.992;8.422;2022-08-21T10:06:00;8.43;;;4.03;;
5458;SDS011;2752;49.992;8.422;2022-08-21T10:08:30;11.47;;;3.20;;
5458;SDS011;2752;49.992;8.422;2022-08-21T10:11:01;5.77;;;2.90;;
5458;SDS011;2752;49.992;8.422;2022-08-21T10:13:37;7.03;;;3.60;;
5458;SDS011;2752;49.992;8.422;2022-08-21T10:16:15;14.47;;;3.30;;
5458;SDS011;2752;49.992;8.422;2022-08-21T10:18:56;22.83;;;3.87;;
5458;SDS011;2752;49.992;8.422;2022-08-21T10:21:35;12.00;;;3.13;;
5458;SDS011;2752;49.992;8.422;2022-08-21T10:24:08;11.97;;;3.70;;
5458;SDS011;2752;49.992;8.422;2022-08-21T10:26:48;7.60;;;3.80;;
5458;SDS011;2752;49.992;8.422;2022-08-21T10:29:27;7.70;;;3.67;;
5458;SDS011;2752;49.992;8.422;2022-08-21T10:32:08;15.03;;;3.33;;
5458;SDS011;2752;49.992;8.422;2022-08-21T10:34:56;8.50;;;3.70;;
5458;SDS011;2752;49.992;8.422;2022-08-21T10:37:36;7.90;;;4.23;;
5458;SDS011;2752;49.992;8.422;2022-08-21T10:40:10;12.07;;;4.23;;
5458;SDS011;2752;49.992;8.422;2022-08-21T10:42:48;11.10;;;4.47;;
5458;SDS011;2752;49.992;8.422;2022-08-21T10:45:25;15.43;;;3.63;;
5458;SDS011;2752;49.992;8.422;2022-08-21T10:48:01;14.03;;;4.00;;
5458;SDS011;2752;49.992;8.422;2022-08-21T10:50:38;12.47;;;3.90;;
5458;SDS011;2752;49.992;8.422;2022-08-21T10:53:14;8.27;;;3.70;;
5458;SDS011;2752;49.992;8.422;2022-08-21T10:55:48;7.70;;;3.60;;
5458;SDS011;2752;49.992;8.422;2022-08-21T10:58:22;11.23;;;3.50;;
5458;SDS011;2752;49.992;8.422;2022-08-21T11:00:55;7.13;;;3.37;;
5458;SDS011;2752;49.992;8.422;2022-08-21T11:03:25;15.70;;;4.57;;
5458;SDS011;2752;49.992;8.422;2022-08-21T11:06:00;15.47;;;3.60;;
5458;SDS011;2752;49.992;8.422;2022-08-21T11:08:31;9.10;;;3.37;;
5458;SDS011;2752;49.992;8.422;2022-08-21T11:11:04;5.60;;;3.40;;
5458;SDS011;2752;49.992;8.422;2022-08-21T11:13:35;9.40;;;3.70;;
5458;SDS011;2752;49.992;8.422;2022-08-21T11:16:07;8.17;;;2.90;;
5458;SDS011;2752;49.992;8.422;2022-08-21T11:18:41;9.10;;;3.60;;
5458;SDS011;2752;49.992;8.422;2022-08-21T11:21:19;12.83;;;3.43;;
5458;SDS011;2752;49.992;8.422;2022-08-21T11:23:54;16.53;;;3.67;;
5458;SDS011;2752;49.992;8.422;2022-08-21T11:26:30;8.97;;;3.03;;
5458;SDS011;2752;49.992;8.422;2022-08-21T11:29:04;15.50;;;2.87;;
5458;SDS011;2752;49.992;8.422;2022-08-21T11:31:41;10.90;;;2.73;;
5458;SDS011;2752;49.992;8.422;2022-08-21T11:34:21;7.63;;;2.63;;
5458;SDS011;2752;49.992;8.422;2022-08-21T11:37:03;9.60;;;4.53;;
5458;SDS011;2752;49.992;8.422;2022-08-21T11:39:37;10.97;;;3.60;;
5458;SDS011;2752;49.992;8.422;2022-08-21T11:42:12;4.50;;;2.93;;
5458;SDS011;2752;49.992;8.422;2022-08-21T11:44:51;10.67;;;3.73;;
5458;SDS011;2752;49.992;8.422;2022-08-21T11:47:24;7.13;;;3.10;;
5458;SDS011;2752;49.992;8.422;2022-08-21T11:50:02;10.17;;;3.53;;
5458;SDS011;2752;49.992;8.422;2022-08-21T11:52:39;8.83;;;3.07;;
5458;SDS011;2752;49.992;8.422;2022-08-21T11:55:11;6.80;;;2.57;;
5458;SDS011;2752;49.992;8.422;2022-08-21T11:57:44;10.30;;;3.27;;
5458;SDS011;2752;49.992;8.422;2022-08-21T12:00:19;9.90;;;3.20;;
5458;SDS011;2752;49.992;8.422;2022-08-21T12:02:52;6.80;;;2.67;;
5458;SDS011;2752;49.992;8.422;2022-08-21T12:05:23;9.73;;;2.70;;
5458;SDS011;2752;49.992;8.422;2022-08-21T12:08:02;13.10;;;3.73;;
5458;SDS011;2752;49.992;8.422;2022-08-21T12:10:33;9.73;;;3.10;;
5458;SDS011;2752;49.992;8.422;2022-08-21T12:13:08;5.07;;;3.03;;
5458;SDS011;2752;49.992;8.422;2022-08-21T12:15:38;16.43;;;2.90;;
5458;SDS011;2752;49.992;8.422;2022-08-21T12:18:06;7.90;;;2.93;;
5458;SDS011;2752;49.992;8.422;2022-08-21T12:20:56;7.80;;;2.37;;
5458;SDS011;2752;49.992;8.422;2022-08-21T12:23:27;6.20;;;2.30;;
5458;SDS011;2752;49.992;8.422;2022-08-21T12:26:00;10.53;;;2.80;;
5458;SDS011;2752;49.992;8.422;2022-08-21T12:28:30;5.00;;;2.40;;
5458;SDS011;2752;49.992;8.422;2022-08-21T12:30:58;8.43;;;2.23;;
5458;SDS011;2752;49.992;8.422;2022-08-21T12:33:26;9.23;;;3.43;;
5458;SDS011;2752;49.992;8.422;2022-08-21T12:36:01;6.97;;;2.90;;
5458;SDS011;2752;49.992;8.422;2022-08-21T12:38:33;6.80;;;2.63;;
5458;SDS011;2752;49.992;8.422;2022-08-21T12:41:10;7.90;;;2.80;;
5458;SDS011;2752;49.992;8.422;2022-08-21T12:43:45;11.20;;;2.80;;
5458;SDS011;2752;49.992;8.422;2022-08-21T12:46:17;8.50;;;3.30;;
5458;SDS011;2752;49.992;8.422;2022-08-21T12:48:46;11.33;;;2.60;;
5458;SDS011;2752;49.992;8.422;2022-08-21T12:51:18;7.23;;;2.47;;
5458;SDS011;2752;49.992;8.422;2022-08-21T12:53:52;5.07;;;2.93;;
5458;SDS011;2752;49.992;8.422;2022-08-21T12:56:21;7.90;;;2.97;;
5458;SDS011;2752;49.992;8.422;2022-08-21T12:58:50;5.90;;;2.37;;
5458;SDS011;2752;49.992;8.422;2022-08-21T13:01:21;13.83;;;2.97;;
5458;SDS011;2752;49.992;8.422;2022-08-21T13:03:50;4.93;;;2.53;;
5458;SDS011;2752;49.992;8.422;2022-08-21T13:06:19;8.27;;;2.57;;
5458;SDS011;2752;49.992;8.422;2022-08-21T13:08:47;5.03;;;2.30;;
5458;SDS011;2752;49.992;8.422;2022-08-21T13:11:18;6.77;;;2.83;;
5458;SDS011;2752;49.992;8.422;2022-08-21T13:13:48;5.80;;;2.30;;
5458;SDS011;2752;49.992;8.422;2022-08-21T13:16:18;8.00;;;2.17;;
5458;SDS011;2752;49.992;8.422;2022-08-21T13:18:52;8.03;;;2.30;;
5458;SDS011;2752;49.992;8.422;2022-08-21T13:21:21;8.80;;;2.23;;
5458;SDS011;2752;49.992;8.422;2022-08-21T13:23:52;6.30;;;2.33;;
5458;SDS011;2752;49.992;8.422;2022-08-21T13:26:21;8.30;;;2.57;;
5458;SDS011;2752;49.992;8.422;2022-08-21T13:28:48;8.30;;;2.50;;
5458;SDS011;2752;49.992;8.422;2022-08-21T13:31:16;3.67;;;1.97;;
5458;SDS011;2752;49.992;8.422;2022-08-21T13:33:48;5.70;;;2.90;;
5458;SDS011;2752;49.992;8.422;2022-08-21T13:36:17;5.47;;;2.00;;
5458;SDS011;2752;49.992;8.422;2022-08-21T13:38:46;8.00;;;2.37;;
5458;SDS011;2752;49.992;8.422;2022-08-21T13:41:18;9.00;;;2.57;;
5458;SDS011;2752;49.992;8.422;2022-08-21T13:43:55;3.20;;;1.90;;
5458;SDS011;2752;49.992;8.422;2022-08-21T13:46:24;5.60;;;2.20;;
5458;SDS011;2752;49.992;8.422;2022-08-21T13:48:53;4.50;;;2.60;;
5458;SDS011;2752;49.992;8.422;2022-08-21T13:51:21;9.70;;;2.40;;
5458;SDS011;2752;49.992;8.422;2022-08-21T13:53:49;9.10;;;2.53;;
5458;SDS011;2752;49.992;8.422;2022-08-21T13:56:23;21.20;;;3.50;;
5458;SDS011;2752;49.992;8.422;2022-08-21T13:58:52;7.23;;;2.80;;
5458;SDS011;2752;49.992;8.422;2022-08-21T14:01:20;8.97;;;2.40;;
5458;SDS011;2752;49.992;8.422;2022-08-21T14:03:50;7.27;;;2.43;;
5458;SDS011;2752;49.992;8.422;2022-08-21T14:06:23;8.17;;;2.27;;
5458;SDS011;2752;49.992;8.422;2022-08-21T14:08:53;15.87;;;2.50;;
5458;SDS011;2752;49.992;8.422;2022-08-21T14:11:23;5.77;;;2.10;;
5458;SDS011;2752;49.992;8.422;2022-08-21T14:13:55;10.80;;;3.07;;
5458;SDS011;2752;49.992;8.422;2022-08-21T14:16:25;3.77;;;1.90;;
5458;SDS011;2752;49.992;8.422;2022-08-21T14:19:07;7.00;;;2.00;;
5458;SDS011;2752;49.992;8.422;2022-08-21T14:21:37;5.47;;;2.60;;
5458;SDS011;2752;49.992;8.422;2022-08-21T14:24:06;5.93;;;2.37;;
5458;SDS011;2752;49.992;8.422;2022-08-21T14:26:41;6.43;;;2.17;;
5458;SDS011;2752;49.992;8.422;2022-08-21T14:29:12;6.03;;;2.40;;
5458;SDS011;2752;49.992;8.422;2022-08-21T14:31:41;9.20;;;2.40;;
5458;SDS011;2752;49.992;8.422;2022-08-21T14:34:09;10.03;;;2.20;;
5458;SDS011;2752;49.992;8.422;2022-08-21T14:36:39;7.30;;;2.17;;
5458;SDS011;2752;49.992;8.422;2022-08-21T14:39:05;11.63;;;3.33;;
5458;SDS011;2752;49.992;8.422;2022-08-21T14:41:32;4.00;;;1.80;;
5458;SDS011;2752;49.992;8.422;2022-08-21T14:44:00;9.23;;;2.33;;
5458;SDS011;2752;49.992;8.422;2022-08-21T14:46:28;12.20;;;2.73;;
5458;SDS011;2752;49.992;8.422;2022-08-21T14:48:56;5.20;;;2.30;;
5458;SDS011;2752;49.992;8.422;2022-08-21T14:51:23;7.53;;;2.00;;
5458;SDS011;2752;49.992;8.422;2022-08-21T14:53:50;6.00;;;2.20;;
5458;SDS011;2752;49.992;8.422;2022-08-21T14:56:16;8.60;;;2.73;;
5458;SDS011;2752;49.992;8.422;2022-08-21T14:58:45;6.63;;;2.50;;
5458;SDS011;2752;49.992;8.422;2022-08-21T15:01:16;6.30;;;2.80;;
5458;SDS011;2752;49.992;8.422;2022-08-21T15:03:44;6.27;;;2.33;;
5458;SDS011;2752;49.992;8.422;2022-08-21T15:06:11;5.67;;;2.60;;
5458;SDS011;2752;49.992;8.422;2022-08-21T15:08:38;4.10;;;2.30;;
5458;SDS011;2752;49.992;8.422;2022-08-21T15:11:05;5.30;;;2.07;;
5458;SDS011;2752;49.992;8.422;2022-08-21T15:13:32;7.83;;;2.13;;
5458;SDS011;2752;49.992;8.422;2022-08-21T15:15:59;4.03;;;2.10;;
5458;SDS011;2752;49.992;8.422;2022-08-21T15:18:28;6.93;;;2.00;;
5458;SDS011;2752;49.992;8.422;2022-08-21T15:20:56;4.17;;;2.07;;
5458;SDS011;2752;49.992;8.422;2022-08-21T15:23:23;4.47;;;2.43;;